Time;durP1;ratioP1;P1;durP2;ratioP2;P2;SDS_P1;SDS_P2;PMS_P1;PMS_P2;Temp;Humidity;BMP_temperature;BMP_pressure;BME280_temperature;BME280_humidity;BME280_pressure;Samples;Min_cycle;Max_cycle;Signal;HPM_P1;HPM_P2
2022/07/05 00:01:20;;;;;;;7.92;5.87;;;;;;;18.62;63.83;97223.88;1689552;84;25793;-76
2022/07/05 00:03:46;;;;;;;6.20;4.92;;;;;;;18.59;63.87;97221.70;1689410;84;25870;-77
2022/07/05 00:06:13;;;;;;;7.45;5.62;;;;;;;18.49;63.86;97222.96;1689463;84;25991;-77
2022/07/05 00:08:40;;;;;;;6.15;5.40;;;;;;;18.41;64.00;97215.28;1689311;84;25656;-77
2022/07/05 00:11:08;;;;;;;8.25;5.75;;;;;;;18.30;64.03;97222.61;1689531;84;27393;-76
2022/07/05 00:13:35;;;;;;;6.55;5.12;;;;;;;18.27;64.16;97222.59;1689380;84;25775;-78
2022/07/05 00:16:02;;;;;;;7.05;5.58;;;;;;;18.29;64.18;97228.61;1689416;84;26824;-79
2022/07/05 00:18:28;;;;;;;6.53;5.70;;;;;;;18.32;64.14;97233.56;1689605;84;26297;-78
2022/07/05 00:20:55;;;;;;;6.00;5.40;;;;;;;18.31;64.12;97232.45;1689339;84;25730;-77
2022/07/05 00:23:22;;;;;;;6.33;5.10;;;;;;;18.34;64.25;97230.02;1689653;84;27377;-77
2022/07/05 00:25:48;;;;;;;6.83;5.45;;;;;;;18.39;64.31;97231.94;1689511;84;25680;-77
2022/07/05 00:28:15;;;;;;;5.58;5.08;;;;;;;18.41;64.32;97231.67;1689582;84;25684;-77
2022/07/05 00:30:42;;;;;;;5.67;5.15;;;;;;;18.40;64.34;97224.02;1689331;84;25362;-77
2022/07/05 00:33:12;;;;;;;6.85;5.15;;;;;;;18.38;64.37;97222.09;1689610;84;25684;-77
2022/07/05 00:35:37;;;;;;;5.97;5.17;;;;;;;18.38;64.37;97228.09;1613512;87;27424;-77
2022/07/05 00:38:04;;;;;;;8.20;5.67;;;;;;;18.33;64.33;97222.91;1613394;88;26382;-79
2022/07/05 00:40:31;;;;;;;9.83;5.42;;;;;;;18.30;64.48;97227.53;1613422;88;25775;-77
2022/07/05 00:42:57;;;;;;;6.50;5.70;;;;;;;18.27;64.64;97229.95;1613325;88;26164;-77
2022/07/05 00:45:24;;;;;;;7.45;5.70;;;;;;;18.25;64.83;97234.31;1613400;88;25865;-76
2022/07/05 00:47:51;;;;;;;6.47;5.45;;;;;;;18.24;64.87;97235.95;1613404;87;27472;-77
2022/07/05 00:50:17;;;;;;;7.12;5.90;;;;;;;18.25;64.96;97234.86;1613304;88;25856;-78
2022/07/05 00:52:44;;;;;;;6.53;5.67;;;;;;;18.23;65.07;97233.75;1613337;88;25783;-77
2022/07/05 00:55:11;;;;;;;5.90;5.40;;;;;;;18.24;65.13;97233.21;1613437;88;25829;-77
2022/07/05 00:57:38;;;;;;;7.53;5.78;;;;;;;18.24;65.15;97234.03;1613264;88;25806;-77
2022/07/05 01:00:07;;;;;;;6.70;5.87;;;;;;;18.25;65.17;97230.22;1613302;88;27391;-79
2022/07/05 01:02:33;;;;;;;7.75;5.90;;;;;;;18.26;65.18;97230.50;1613421;88;25772;-78
2022/07/05 01:05:00;;;;;;;8.10;5.83;;;;;;;18.27;65.28;97229.42;1613467;88;25725;-77
2022/07/05 01:07:27;;;;;;;8.60;5.75;;;;;;;18.30;65.28;97228.07;1613174;88;25784;-79
2022/07/05 01:09:54;;;;;;;9.98;5.80;;;;;;;18.30;65.30;97234.36;1657207;86;25708;-78
2022/07/05 01:12:22;;;;;;;6.70;5.75;;;;;;;18.30;65.25;97229.44;1674542;81;28107;-79
2022/07/05 01:14:49;;;;;;;6.15;5.55;;;;;;;18.33;65.19;97228.38;1724723;83;25671;-77
2022/07/05 01:17:17;;;;;;;8.60;6.17;;;;;;;18.40;65.11;97235.50;1725182;83;25794;-79
2022/07/05 01:19:44;;;;;;;8.38;5.90;;;;;;;18.42;65.32;97232.78;1724874;83;26135;-79
2022/07/05 01:22:20;;;;;;;9.55;6.05;;;;;;;18.39;65.53;97234.67;1724745;82;26800;-79
2022/07/05 01:24:49;;;;;;;7.12;6.40;;;;;;;18.29;65.62;97232.71;1725010;83;27375;-77
2022/07/05 01:27:17;;;;;;;8.83;6.47;;;;;;;18.18;65.79;97233.73;1724847;81;25438;-77
2022/07/05 01:29:44;;;;;;;9.15;6.35;;;;;;;18.16;66.13;97234.55;1724938;81;25782;-78
2022/07/05 01:32:11;;;;;;;7.45;6.17;;;;;;;18.18;66.21;97234.28;1724881;83;25649;-77
2022/07/05 01:34:40;;;;;;;7.17;6.45;;;;;;;18.21;66.32;97237.86;1724956;81;25826;-77
2022/07/05 01:37:08;;;;;;;7.60;6.12;;;;;;;18.21;66.39;97240.05;1675543;85;27366;-78
2022/07/05 01:39:35;;;;;;;9.08;6.85;;;;;;;18.22;66.44;97235.41;1744935;81;25890;-79
2022/07/05 01:42:03;;;;;;;7.45;6.15;;;;;;;18.23;66.50;97237.85;1766394;81;25803;-77
2022/07/05 01:44:31;;;;;;;6.80;6.12;;;;;;;18.22;66.50;97237.60;1766261;81;25739;-79
2022/07/05 01:47:05;;;;;;;7.85;6.42;;;;;;;18.22;66.42;97239.51;1766061;81;25767;-77
2022/07/05 01:49:41;;;;;;;12.13;6.55;;;;;;;18.23;66.46;97244.68;1763301;81;27380;-77
2022/07/05 01:52:11;;;;;;;6.70;6.10;;;;;;;18.18;66.49;97241.11;1766303;80;25911;-77
2022/07/05 01:54:39;;;;;;;8.83;6.05;;;;;;;18.15;66.59;97256.11;1766425;81;25795;-77
2022/07/05 01:57:07;;;;;;;7.25;5.83;;;;;;;18.12;66.69;97253.91;1766489;80;25844;-76
2022/07/05 01:59:37;;;;;;;9.93;6.17;;;;;;;18.12;66.72;97261.27;1766435;81;25889;-76
2022/07/05 02:02:06;;;;;;;8.88;6.70;;;;;;;18.12;66.93;97267.55;1766573;81;27391;-77
2022/07/05 02:04:35;;;;;;;5.90;5.30;;;;;;;18.11;66.94;97274.14;1766226;80;25795;-77
2022/07/05 02:07:07;;;;;;;6.40;5.78;;;;;;;18.14;66.92;97277.69;1766318;81;25728;-77
2022/07/05 02:09:34;;;;;;;6.70;6.10;;;;;;;18.19;66.83;97272.27;1766628;81;25767;-77
2022/07/05 02:12:04;;;;;;;6.78;6.08;;;;;;;18.23;66.89;97270.64;1766479;81;25772;-78
2022/07/05 02:14:31;;;;;;;7.03;5.92;;;;;;;18.22;66.96;97281.31;1766413;81;27379;-76
2022/07/05 02:16:58;;;;;;;7.10;5.97;;;;;;;18.23;67.03;97272.00;1766341;81;25465;-77
2022/07/05 02:19:24;;;;;;;8.05;5.92;;;;;;;18.23;67.04;97272.58;1766430;81;25901;-79
2022/07/05 02:21:51;;;;;;;8.15;6.00;;;;;;;18.22;67.09;97270.38;1766571;81;25973;-78
2022/07/05 02:24:20;;;;;;;9.68;5.85;;;;;;;18.20;67.09;97259.44;1766147;81;25721;-77
2022/07/05 02:26:48;;;;;;;8.43;6.47;;;;;;;18.21;67.23;97256.98;1766382;81;27439;-77
2022/07/05 02:29:15;;;;;;;7.53;5.70;;;;;;;18.20;67.44;97256.70;1766062;81;25836;-77
2022/07/05 02:31:41;;;;;;;6.83;6.17;;;;;;;18.14;67.35;97250.91;1766098;81;25718;-77
2022/07/05 02:34:08;;;;;;;9.50;6.05;;;;;;;18.15;67.48;97250.66;1793673;79;25725;-78
2022/07/05 02:36:34;;;;;;;8.18;5.90;;;;;;;18.12;67.43;97255.27;1814597;79;25772;-77
2022/07/05 02:39:01;;;;;;;6.92;5.92;;;;;;;18.16;67.53;97256.94;1814765;79;27339;-77
2022/07/05 02:41:28;;;;;;;9.83;6.35;;;;;;;18.17;67.44;97268.15;1814638;79;25225;-77
2022/07/05 02:43:54;;;;;;;7.15;5.87;;;;;;;18.19;67.50;97269.53;1814743;79;25660;-78
2022/07/05 02:46:21;;;;;;;8.10;6.08;;;;;;;18.23;67.54;97276.09;1814599;79;25751;-79
2022/07/05 02:48:48;;;;;;;7.22;6.22;;;;;;;18.25;67.64;97280.77;1745198;82;26632;-79
2022/07/05 02:51:16;;;;;;;7.12;6.12;;;;;;;18.26;67.78;97280.22;1749228;82;27357;-77
2022/07/05 02:53:42;;;;;;;9.90;6.72;;;;;;;18.23;67.82;97273.37;1748944;82;25911;-77
2022/07/05 02:56:09;;;;;;;6.15;5.53;;;;;;;18.22;67.89;97275.84;1749138;82;25746;-79
2022/07/05 02:58:38;;;;;;;7.08;6.33;;;;;;;18.23;67.93;97278.83;1749077;82;25701;-78
2022/07/05 03:01:04;;;;;;;9.80;6.42;;;;;;;18.19;68.06;97270.91;1748771;82;25887;-77
2022/07/05 03:03:31;;;;;;;7.35;6.50;;;;;;;18.20;68.21;97279.92;1749090;82;27372;-79
2022/07/05 03:05:58;;;;;;;10.03;6.30;;;;;;;18.18;68.29;97280.18;1749069;82;25807;-77
2022/07/05 03:08:24;;;;;;;8.85;6.30;;;;;;;18.18;68.27;97284.82;1740783;81;25754;-77
2022/07/05 03:10:51;;;;;;;7.67;6.87;;;;;;;18.19;68.32;97279.64;1734528;82;25403;-77
2022/07/05 03:13:18;;;;;;;9.15;6.33;;;;;;;18.21;68.37;97285.13;1734986;82;25836;-77
2022/07/05 03:15:45;;;;;;;8.95;7.05;;;;;;;18.17;68.40;97279.90;1734793;82;27386;-78
2022/07/05 03:18:11;;;;;;;9.30;6.40;;;;;;;18.19;68.51;97284.56;1734873;82;25647;-76
2022/07/05 03:20:38;;;;;;;8.40;6.58;;;;;;;18.19;68.48;97285.10;1735002;82;25662;-77
2022/07/05 03:23:05;;;;;;;7.45;6.72;;;;;;;18.20;68.63;97284.84;1734944;82;25429;-77
2022/07/05 03:25:33;;;;;;;11.20;6.97;;;;;;;18.15;68.69;97281.23;1735005;82;26628;-77
2022/07/05 03:27:59;;;;;;;7.90;6.50;;;;;;;18.15;68.71;97281.23;1734790;82;27370;-76
2022/07/05 03:30:26;;;;;;;7.20;6.50;;;;;;;18.18;68.76;97273.89;1734957;82;25728;-78
2022/07/05 03:32:53;;;;;;;7.12;6.42;;;;;;;18.20;68.85;97269.81;1735071;82;25848;-78
2022/07/05 03:35:19;;;;;;;8.58;7.17;;;;;;;18.23;68.81;97265.75;1734902;82;26034;-77
2022/07/05 03:37:46;;;;;;;8.10;7.00;;;;;;;18.27;68.93;97272.30;1734915;82;25806;-78
2022/07/05 03:40:12;;;;;;;9.48;6.58;;;;;;;18.29;68.85;97276.43;1734862;82;27353;-77
2022/07/05 03:42:39;;;;;;;10.10;6.40;;;;;;;18.32;68.84;97273.72;1734717;82;25678;-77
2022/07/05 03:45:07;;;;;;;7.40;6.62;;;;;;;18.33;68.81;97266.63;1734858;82;25691;-78
2022/07/05 03:47:34;;;;;;;6.95;6.28;;;;;;;18.35;68.73;97272.63;1734851;82;25721;-77
2022/07/05 03:50:00;;;;;;;9.45;6.97;;;;;;;18.38;68.74;97275.92;1734918;82;25722;-77
2022/07/05 03:52:27;;;;;;;7.03;6.33;;;;;;;18.39;68.85;97270.73;1734797;82;27361;-77
2022/07/05 03:54:54;;;;;;;9.40;6.40;;;;;;;18.41;68.88;97265.84;1734750;82;25655;-77
2022/07/05 03:57:21;;;;;;;8.75;6.78;;;;;;;18.42;69.05;97264.75;1734576;82;25228;-77
2022/07/05 03:59:48;;;;;;;8.30;6.25;;;;;;;18.43;69.08;97260.94;1734836;82;26183;-77
2022/07/05 04:02:15;;;;;;;8.88;7.00;;;;;;;18.46;69.09;97268.61;1734938;82;25694;-77
2022/07/05 04:04:42;;;;;;;7.75;6.78;;;;;;;18.47;69.18;97266.16;1734839;82;27386;-79
2022/07/05 04:07:08;;;;;;;8.78;6.53;;;;;;;18.48;69.36;97267.78;1725682;82;25694;-77
2022/07/05 04:09:35;;;;;;;7.70;6.90;;;;;;;18.43;69.46;97270.50;1736228;82;25761;-78
2022/07/05 04:12:02;;;;;;;7.35;6.65;;;;;;;18.42;69.53;97268.85;1736789;82;25702;-77
2022/07/05 04:14:29;;;;;;;7.42;6.72;;;;;;;18.44;69.58;97274.88;1736546;82;25690;-78
2022/07/05 04:16:55;;;;;;;7.58;6.58;;;;;;;18.47;69.65;97272.99;1736894;82;28137;-78
2022/07/05 04:19:22;;;;;;;8.23;6.83;;;;;;;18.47;69.65;97276.55;1736574;82;25800;-77
2022/07/05 04:21:49;;;;;;;9.53;6.55;;;;;;;18.51;69.58;97274.91;1736420;82;25833;-78
2022/07/05 04:24:15;;;;;;;8.08;7.12;;;;;;;18.55;69.62;97276.58;1736917;82;25690;-77
2022/07/05 04:26:42;;;;;;;10.40;7.25;;;;;;;18.54;69.84;97274.94;1737027;82;25770;-78
2022/07/05 04:29:09;;;;;;;12.55;7.00;;;;;;;18.54;70.06;97270.29;1736837;82;27369;-77
2022/07/05 04:31:36;;;;;;;9.55;6.92;;;;;;;18.53;70.07;97271.38;1736752;82;25735;-77
2022/07/05 04:34:03;;;;;;;7.25;6.53;;;;;;;18.57;70.19;97272.50;1736818;82;25772;-77
2022/07/05 04:36:30;;;;;;;10.03;6.58;;;;;;;18.59;70.05;97270.91;1736471;82;25674;-78
2022/07/05 04:38:57;;;;;;;8.03;6.75;;;;;;;18.60;70.00;97271.98;1736801;82;25771;-77
2022/07/05 04:41:24;;;;;;;8.23;6.95;;;;;;;18.61;70.01;97272.80;1736842;82;27349;-78
2022/07/05 04:43:50;;;;;;;8.98;7.05;;;;;;;18.62;70.09;97275.81;1736829;82;25722;-77
2022/07/05 04:46:17;;;;;;;11.53;7.67;;;;;;;18.59;70.02;97275.83;1736863;82;25715;-78
2022/07/05 04:48:44;;;;;;;9.43;8.08;;;;;;;18.60;70.07;97276.62;1736910;82;26156;-77
2022/07/05 04:51:10;;;;;;;12.35;9.80;;;;;;;18.62;70.12;97275.81;1736875;82;25466;-77
2022/07/05 04:53:37;;;;;;;17.60;11.00;;;;;;;18.66;70.14;97276.94;1736757;82;28093;-78
2022/07/05 04:56:05;;;;;;;16.05;11.00;;;;;;;18.71;70.09;97274.25;1736669;82;25722;-77
2022/07/05 04:58:32;;;;;;;15.15;10.48;;;;;;;18.74;70.17;97275.05;1736907;82;25780;-79
2022/07/05 05:00:58;;;;;;;16.57;11.40;;;;;;;18.73;70.47;97274.77;1737013;82;25826;-78
2022/07/05 05:03:25;;;;;;;15.50;11.25;;;;;;;18.62;70.44;97271.17;1737011;82;25765;-78
2022/07/05 05:05:51;;;;;;;16.55;10.45;;;;;;;18.62;70.58;97278.01;1736948;82;27356;-79
2022/07/05 05:08:18;;;;;;;16.95;10.28;;;;;;;18.64;70.66;97280.48;1736687;81;25406;-77
2022/07/05 05:10:45;;;;;;;12.93;10.30;;;;;;;18.68;70.70;97281.60;1724800;83;25774;-77
2022/07/05 05:13:12;;;;;;;13.83;10.25;;;;;;;18.72;70.79;97286.80;1725170;82;25718;-78
2022/07/05 05:15:38;;;;;;;15.32;10.53;;;;;;;18.74;70.92;97283.80;1726470;82;25758;-79
2022/07/05 05:18:05;;;;;;;14.50;10.45;;;;;;;18.78;71.08;97282.19;1720847;82;28184;-78
2022/07/05 05:20:31;;;;;;;12.63;9.40;;;;;;;18.83;71.29;97287.15;1720574;82;25771;-80
2022/07/05 05:22:58;;;;;;;15.58;10.03;;;;;;;18.82;71.26;97280.03;1722496;82;25809;-79
2022/07/05 05:25:27;;;;;;;13.98;9.55;;;;;;;18.85;71.47;97284.12;1733278;82;25753;-79
2022/07/05 05:27:53;;;;;;;14.70;10.18;;;;;;;18.87;71.41;97288.24;1725039;82;25721;-78
2022/07/05 05:30:20;;;;;;;12.43;9.90;;;;;;;18.88;71.37;97289.06;1734773;82;27361;-79
2022/07/05 05:32:47;;;;;;;12.05;10.15;;;;;;;18.89;71.43;97297.55;1734807;82;25749;-77
2022/07/05 05:35:16;;;;;;;12.37;10.45;;;;;;;18.94;71.44;97298.41;1734797;82;25793;-79
2022/07/05 05:37:52;;;;;;;13.65;10.60;;;;;;;18.98;71.59;97299.50;1734954;82;25753;-80
2022/07/05 05:40:20;;;;;;;16.12;10.50;;;;;;;19.03;71.69;97298.16;1696834;84;25376;-79
2022/07/05 05:42:48;;;;;;;13.72;9.55;;;;;;;19.05;71.73;97301.46;1692901;84;27582;-78
2022/07/05 05:45:15;;;;;;;12.68;10.13;;;;;;;19.10;71.78;97309.39;1696356;84;25876;-80
2022/07/05 05:47:56;;;;;;;12.90;10.32;;;;;;;19.13;71.79;97310.23;1696712;84;25749;-79
2022/07/05 05:50:30;;;;;;;16.10;10.03;;;;;;;19.18;71.58;97314.36;1696924;84;26492;-79
2022/07/05 05:52:58;;;;;;;11.93;9.83;;;;;;;19.22;71.48;97317.64;1666810;86;25818;-78
2022/07/05 05:55:27;;;;;;;12.47;11.18;;;;;;;19.24;71.69;97325.59;1666779;86;28437;-81
2022/07/05 05:57:54;;;;;;;11.75;10.45;;;;;;;19.19;71.79;97323.67;1666742;86;25866;-79
2022/07/05 06:00:22;;;;;;;12.13;10.93;;;;;;;19.21;71.98;97324.20;1666630;86;25346;-78
2022/07/05 06:02:50;;;;;;;12.00;10.48;;;;;;;19.22;72.13;97329.13;1666868;86;25847;-80
2022/07/05 06:05:18;;;;;;;12.03;10.58;;;;;;;19.24;72.17;97321.48;1666860;86;25726;-78
2022/07/05 06:07:53;;;;;;;13.70;11.40;;;;;;;19.25;72.41;97329.97;1666844;86;27474;-78
2022/07/05 06:10:27;;;;;;;14.73;11.10;;;;;;;19.28;72.33;97341.76;1666499;86;26527;-77
2022/07/05 06:12:57;;;;;;;13.80;11.38;;;;;;;19.30;72.54;97332.73;1666421;86;25767;-78
2022/07/05 06:15:24;;;;;;;15.05;11.48;;;;;;;19.35;72.42;97338.21;1666299;86;26366;-77
2022/07/05 06:17:51;;;;;;;13.30;10.88;;;;;;;19.37;72.59;97340.14;1666717;86;25747;-77
2022/07/05 06:20:22;;;;;;;13.72;10.63;;;;;;;19.34;72.76;97343.41;1666514;86;28356;-77
2022/07/05 06:22:50;;;;;;;13.50;11.05;;;;;;;19.36;72.77;97346.16;1666514;86;25823;-78
2022/07/05 06:25:17;;;;;;;13.22;11.78;;;;;;;19.39;72.69;97342.06;1666655;86;25856;-77
2022/07/05 06:27:57;;;;;;;15.23;11.35;;;;;;;19.42;72.63;97341.53;1666593;86;25786;-77
2022/07/05 06:30:26;;;;;;;16.17;11.53;;;;;;;19.45;72.77;97346.45;1666732;86;25767;-76
2022/07/05 06:32:54;;;;;;;13.53;12.18;;;;;;;19.48;72.91;97345.09;1666616;86;26876;-77
2022/07/05 06:35:22;;;;;;;14.98;13.30;;;;;;;19.42;73.13;97347.84;1666619;86;25830;-77
2022/07/05 06:37:59;;;;;;;13.68;12.25;;;;;;;19.34;73.37;97348.34;1650003;86;25857;-76
2022/07/05 06:40:38;;;;;;;21.12;12.28;;;;;;;19.29;73.55;97356.55;1591322;90;25525;-77
2022/07/05 06:43:08;;;;;;;21.80;13.00;;;;;;;19.31;73.77;97363.13;1590818;90;25867;-77
2022/07/05 06:45:35;;;;;;;14.50;12.78;;;;;;;19.38;73.79;97358.20;1602106;89;26890;-76
2022/07/05 06:48:08;;;;;;;15.10;12.63;;;;;;;19.42;73.71;97356.05;1593699;90;25853;-76
2022/07/05 06:50:39;;;;;;;14.33;11.50;;;;;;;19.49;73.73;97356.35;1626059;87;25774;-75
2022/07/05 06:53:07;;;;;;;16.80;12.35;;;;;;;19.52;73.79;97359.93;1631158;87;26650;-75
2022/07/05 06:55:34;;;;;;;14.35;12.03;;;;;;;19.54;73.83;97368.70;1621974;88;25811;-76
2022/07/05 06:58:08;;;;;;;16.15;12.30;;;;;;;19.53;73.81;97380.74;1622344;88;27464;-75
2022/07/05 07:00:35;;;;;;;15.58;11.85;;;;;;;19.53;73.84;97383.48;1622064;88;25865;-76
2022/07/05 07:03:02;;;;;;;14.50;11.60;;;;;;;19.52;73.71;97384.56;1622258;88;25689;-77
2022/07/05 07:05:29;;;;;;;18.15;13.45;;;;;;;19.50;73.73;97381.27;1622414;88;25813;-76
2022/07/05 07:10:33;;;;;;;18.73;13.40;;;;;;;19.50;73.94;97379.36;1534392;92;27577;-76
2022/07/05 07:13:01;;;;;;;18.00;14.73;;;;;;;19.52;74.04;97377.18;1534611;93;25814;-76
2022/07/05 07:15:29;;;;;;;16.93;14.38;;;;;;;19.54;74.12;97370.89;1534529;93;25876;-76
2022/07/05 07:17:56;;;;;;;16.37;14.45;;;;;;;19.49;74.32;97370.87;1534543;93;25849;-76
2022/07/05 07:20:23;;;;;;;18.73;14.05;;;;;;;19.44;74.59;97374.37;1542667;92;25784;-76
2022/07/05 07:22:50;;;;;;;14.93;12.95;;;;;;;19.47;74.63;97375.75;1557348;92;27410;-76
2022/07/05 07:25:17;;;;;;;16.37;12.55;;;;;;;19.47;74.76;97380.41;1557193;92;25824;-78
2022/07/05 07:27:47;;;;;;;14.65;10.85;;;;;;;19.47;74.78;97385.33;1556928;92;25786;-77
2022/07/05 07:30:16;;;;;;;11.75;10.50;;;;;;;19.48;74.81;97383.42;1557266;92;26202;-76
2022/07/05 07:32:45;;;;;;;12.93;9.65;;;;;;;19.50;74.68;97378.53;1557353;92;25822;-76
2022/07/05 07:35:12;;;;;;;13.10;9.50;;;;;;;19.54;74.61;97379.11;1557083;92;27408;-76
2022/07/05 07:37:39;;;;;;;17.70;10.85;;;;;;;19.57;74.64;97375.80;1591850;89;26567;-76
2022/07/05 07:40:08;;;;;;;15.72;10.03;;;;;;;19.58;74.53;97373.35;1601684;89;25459;-76
2022/07/05 07:42:34;;;;;;;11.60;10.40;;;;;;;19.59;74.61;97370.06;1606920;89;25824;-76
2022/07/05 07:45:03;;;;;;;14.68;10.08;;;;;;;19.61;74.63;97372.81;1591184;90;25863;-77
2022/07/05 07:47:32;;;;;;;11.35;9.85;;;;;;;19.63;74.75;97377.48;1657924;84;28658;-76
2022/07/05 07:50:00;;;;;;;10.78;8.55;;;;;;;19.65;74.72;97380.78;1671503;85;25820;-76
2022/07/05 07:52:26;;;;;;;10.65;8.58;;;;;;;19.67;74.59;97384.08;1671526;85;25781;-76
2022/07/05 07:54:53;;;;;;;9.75;8.73;;;;;;;19.67;74.51;97381.34;1671558;85;25777;-75
2022/07/05 07:57:20;;;;;;;9.50;8.53;;;;;;;19.64;74.55;97390.09;1671330;85;25827;-75
2022/07/05 07:59:48;;;;;;;11.63;8.90;;;;;;;19.67;74.44;97388.19;1671241;85;28225;-76
2022/07/05 08:02:14;;;;;;;11.75;9.65;;;;;;;19.71;74.41;97385.70;1671457;85;25348;-76
2022/07/05 08:04:41;;;;;;;10.78;9.70;;;;;;;19.75;74.39;97384.91;1671702;85;25928;-76
2022/07/05 08:07:08;;;;;;;13.10;10.08;;;;;;;19.81;74.42;97379.42;1671712;85;25754;-76
2022/07/05 08:09:34;;;;;;;12.23;10.58;;;;;;;19.84;74.45;97381.63;1672473;85;25764;-76
2022/07/05 08:12:01;;;;;;;14.83;10.13;;;;;;;19.81;74.56;97380.80;1673811;85;28416;-76
2022/07/05 08:14:27;;;;;;;12.28;10.35;;;;;;;19.81;74.70;97376.69;1673854;85;25808;-76
2022/07/05 08:16:54;;;;;;;11.45;9.93;;;;;;;19.82;74.72;97378.33;1673629;85;25852;-76
2022/07/05 08:24:39;;;;;;;10.65;9.55;;;;;;;19.84;74.75;97377.52;1618189;88;27316;-76
2022/07/05 08:27:06;;;;;;;11.57;10.45;;;;;;;19.84;74.73;97369.30;1617943;88;25845;-76
2022/07/05 08:29:33;;;;;;;11.15;10.15;;;;;;;19.85;74.73;97369.58;1618201;87;25859;-76
2022/07/05 08:31:59;;;;;;;13.45;10.98;;;;;;;19.84;74.78;97372.04;1618178;88;25407;-76
2022/07/05 08:34:26;;;;;;;12.13;10.88;;;;;;;19.83;75.05;97371.77;1618160;87;25759;-76
2022/07/05 08:36:52;;;;;;;19.30;11.90;;;;;;;19.75;74.98;97368.48;1617984;88;28188;-76
2022/07/05 08:39:19;;;;;;;23.47;12.20;;;;;;;19.76;75.14;97372.03;1618033;87;25474;-76
2022/07/05 08:41:49;;;;;;;27.25;12.73;;;;;;;19.72;75.22;97366.27;1618188;87;25744;-76
2022/07/05 08:44:21;;;;;;;20.10;12.60;;;;;;;19.71;75.39;97367.36;1618298;87;26457;-76
2022/07/05 08:46:51;;;;;;;14.15;11.73;;;;;;;19.68;75.50;97362.42;1618355;88;25799;-76
2022/07/05 08:49:28;;;;;;;12.80;11.45;;;;;;;19.69;75.60;97366.80;1617964;87;28323;-75
2022/07/05 08:51:56;;;;;;;18.57;11.73;;;;;;;19.68;75.58;97362.42;1617890;88;25825;-76
2022/07/05 08:54:24;;;;;;;14.60;11.12;;;;;;;19.66;75.73;97365.17;1618031;87;25873;-76
2022/07/05 08:56:52;;;;;;;13.45;10.93;;;;;;;19.68;75.88;97361.05;1617653;88;25725;-75
2022/07/05 08:59:19;;;;;;;11.85;10.65;;;;;;;19.74;75.83;97361.34;1617802;87;25903;-76
2022/07/05 09:01:47;;;;;;;11.38;9.75;;;;;;;19.78;75.59;97362.47;1617935;87;27387;-76
2022/07/05 09:04:16;;;;;;;11.28;9.90;;;;;;;19.85;75.33;97362.73;1638402;86;25903;-75
2022/07/05 09:06:46;;;;;;;10.53;9.63;;;;;;;19.89;75.16;97359.73;1610936;89;25847;-76
2022/07/05 09:09:16;;;;;;;12.15;10.90;;;;;;;19.93;75.17;97356.70;1615849;87;26120;-76
2022/07/05 09:11:46;;;;;;;12.47;11.18;;;;;;;19.94;75.31;97355.62;1634624;87;27088;-76
2022/07/05 09:14:23;;;;;;;11.75;10.55;;;;;;;19.97;75.57;97361.93;1661506;86;27405;-76
2022/07/05 09:16:50;;;;;;;12.00;10.80;;;;;;;19.98;75.63;97360.84;1661326;86;25678;-76
2022/07/05 09:19:16;;;;;;;12.95;11.63;;;;;;;20.00;75.51;97360.84;1661395;86;25920;-76
2022/07/05 09:21:43;;;;;;;14.13;11.28;;;;;;;20.03;75.40;97358.11;1661310;86;25779;-76
2022/07/05 09:24:12;;;;;;;13.15;11.95;;;;;;;20.05;75.29;97358.09;1661514;86;25775;-76
2022/07/05 09:26:45;;;;;;;18.73;13.70;;;;;;;20.07;75.20;97353.71;1661523;86;27445;-76
2022/07/05 09:29:15;;;;;;;15.30;13.78;;;;;;;20.07;75.29;97356.45;1750754;81;25729;-75
2022/07/05 09:31:45;;;;;;;20.00;14.30;;;;;;;20.07;75.49;97357.82;1750836;81;25704;-76
2022/07/05 09:34:15;;;;;;;26.85;13.15;;;;;;;20.04;75.56;97356.47;1750775;81;25666;-76
2022/07/05 09:37:03;;;;;;;15.48;12.37;;;;;;;19.96;75.48;97352.06;1750624;81;25641;-76
2022/07/05 09:39:35;;;;;;;15.43;13.18;;;;;;;19.87;75.34;97346.86;1717829;83;27378;-76
2022/07/05 09:44:55;;;;;;;14.23;12.85;;;;;;;19.82;75.82;97345.47;1712895;83;25848;-76
2022/07/05 09:47:29;;;;;;;15.20;13.10;;;;;;;19.88;76.18;97348.50;1681467;85;25801;-75
2022/07/05 09:50:07;;;;;;;15.28;13.70;;;;;;;19.92;76.21;97344.95;1681368;85;25901;-76
2022/07/05 09:52:36;;;;;;;15.80;13.68;;;;;;;19.96;76.16;97343.84;1681384;85;28158;-76
2022/07/05 09:55:08;;;;;;;14.33;12.93;;;;;;;19.93;76.19;97340.27;1681440;85;25866;-75
2022/07/05 10:00:17;;;;;;;13.68;12.28;;;;;;;19.94;76.24;97335.07;1621226;88;25809;-76
2022/07/05 10:03:00;;;;;;;16.57;12.40;;;;;;;19.99;76.12;97333.72;1621053;87;25795;-76
2022/07/05 10:05:26;;;;;;;14.33;12.88;;;;;;;20.05;76.10;97340.83;1633846;87;27416;-75
2022/07/05 10:07:55;;;;;;;14.00;12.58;;;;;;;20.08;76.18;97345.77;1633897;87;25752;-76
2022/07/05 10:10:28;;;;;;;16.50;13.58;;;;;;;20.10;76.04;97339.47;1632066;87;25340;-75
2022/07/05 10:12:57;;;;;;;16.40;12.82;;;;;;;20.09;75.86;97333.72;1631044;87;25760;-75
2022/07/05 10:15:32;;;;;;;14.78;13.28;;;;;;;20.08;75.86;97338.38;1630983;87;26041;-76
2022/07/05 10:18:15;;;;;;;17.23;12.40;;;;;;;20.08;75.82;97334.81;1568157;91;28237;-75
2022/07/05 10:20:45;;;;;;;14.68;12.10;;;;;;;20.09;75.82;97341.39;1568212;91;25852;-75
2022/07/05 10:23:18;;;;;;;13.70;12.28;;;;;;;20.13;75.74;97341.13;1546319;91;25952;-75
2022/07/05 10:25:48;;;;;;;15.25;13.62;;;;;;;20.13;75.70;97338.94;1546410;92;26390;-76
2022/07/05 10:28:17;;;;;;;19.65;14.15;;;;;;;20.09;75.97;97329.60;1546214;92;25864;-76
2022/07/05 10:30:49;;;;;;;17.73;13.30;;;;;;;20.06;76.23;97338.36;1535587;92;27672;-75
2022/07/05 10:33:26;;;;;;;14.63;13.20;;;;;;;20.07;76.38;97330.42;1535003;91;26458;-76
2022/07/05 10:35:50;;;;;;;16.00;14.15;;;;;;;20.10;76.33;97326.59;1527878;92;25827;-76
2022/07/05 10:38:18;;;;;;;16.17;13.32;;;;;;;20.19;76.35;97334.25;1501392;95;26266;-76
2022/07/05 10:40:50;;;;;;;14.15;12.65;;;;;;;20.22;76.27;97331.80;1501447;94;25831;-76
2022/07/05 10:43:17;;;;;;;14.20;12.73;;;;;;;20.24;76.17;97327.41;1501599;94;28282;-76
2022/07/05 10:45:51;;;;;;;13.62;12.23;;;;;;;20.24;76.17;97333.72;1501400;94;25973;-77
2022/07/05 10:48:24;;;;;;;13.05;11.35;;;;;;;20.25;76.11;97335.37;1496347;95;26063;-76
2022/07/05 10:51:03;;;;;;;12.85;11.65;;;;;;;20.27;75.88;97340.58;1491830;96;25872;-76
2022/07/05 10:53:41;;;;;;;12.03;10.78;;;;;;;20.28;75.86;97339.48;1491756;94;26066;-76
2022/07/05 10:56:11;;;;;;;12.13;11.03;;;;;;;20.31;75.74;97335.63;1499520;92;28084;-75
2022/07/05 10:58:44;;;;;;;12.70;11.40;;;;;;;20.28;75.72;97336.74;1626102;88;25826;-75
2022/07/05 11:01:25;;;;;;;12.20;11.00;;;;;;;20.25;75.78;97339.48;1625934;88;25834;-75
2022/07/05 11:04:07;;;;;;;13.32;12.05;;;;;;;20.26;75.83;97343.87;1626307;88;25840;-75
2022/07/05 11:09:18;;;;;;;12.88;11.53;;;;;;;20.28;75.87;97334.83;1576270;89;28217;-76
2022/07/05 11:11:56;;;;;;;12.23;11.00;;;;;;;20.31;75.73;97330.69;1573465;89;25808;-76
2022/07/05 11:14:29;;;;;;;12.63;11.35;;;;;;;20.31;75.77;97329.31;1571074;91;25848;-75
2022/07/05 11:17:22;;;;;;;13.15;11.30;;;;;;;20.31;75.81;97327.40;1569228;91;25998;-75
2022/07/05 11:20:14;;;;;;;12.23;10.98;;;;;;;20.31;75.82;97321.92;1563686;88;26221;-76
2022/07/05 11:23:13;;;;;;;12.40;11.28;;;;;;;20.32;75.80;97314.52;1576548;89;27366;-77
2022/07/05 11:25:48;;;;;;;12.90;11.38;;;;;;;20.32;75.78;97305.75;1484431;95;25579;-75
2022/07/05 11:28:23;;;;;;;11.83;10.72;;;;;;;20.32;75.91;97303.55;1492889;94;25914;-75
2022/07/05 11:30:56;;;;;;;11.10;9.78;;;;;;;20.28;76.07;97297.00;1517378;94;25796;-75
2022/07/05 11:33:35;;;;;;;9.45;8.48;;;;;;;20.30;76.32;97292.03;1517203;93;25909;-75
2022/07/05 11:36:06;;;;;;;9.30;8.40;;;;;;;20.30;76.09;97287.37;1472650;96;27438;-75
2022/07/05 11:38:33;;;;;;;9.90;8.28;;;;;;;20.32;76.05;97285.19;1510940;94;25848;-75
2022/07/05 11:41:16;;;;;;;9.90;8.83;;;;;;;20.32;76.06;97281.63;1454921;97;25868;-75
2022/07/05 11:43:43;;;;;;;9.35;8.45;;;;;;;20.33;75.97;97286.02;1511111;94;25946;-75
2022/07/05 11:46:10;;;;;;;10.95;8.80;;;;;;;20.31;75.96;97280.80;1472753;96;25844;-75
2022/07/05 11:48:38;;;;;;;8.73;7.83;;;;;;;20.31;75.95;97283.55;1510995;94;27487;-75